Time;durP1;ratioP1;P1;durP2;ratioP2;P2;SDS_P1;SDS_P2;PMS_P1;PMS_P2;Temp;Humidity;BMP_temperature;BMP_pressure;BME280_temperature;BME280_humidity;BME280_pressure;Samples;Min_cycle;Max_cycle;Signal;HPM_P1;HPM_P2
2021/09/20 00:06:36;;;;;;;7.60;7.10;;;13.80;99.90;;;;;;4877404;29;20670;-96
2021/09/20 00:09:04;;;;;;;7.33;6.80;;;13.80;99.90;;;;;;4888712;29;20642;-95
2021/09/20 00:11:31;;;;;;;7.50;6.23;;;13.80;99.90;;;;;;4880888;29;20733;-96
2021/09/20 00:23:03;;;;;;;6.47;6.07;;;13.90;99.90;;;;;;4900186;29;20633;-95
2021/09/20 00:25:32;;;;;;;7.50;7.00;;;13.80;99.90;;;;;;4891958;29;20633;-96
2021/09/20 00:28:00;;;;;;;7.33;6.83;;;13.80;99.90;;;;;;4888890;29;20662;-96
2021/09/20 00:30:27;;;;;;;6.97;6.27;;;13.80;99.90;;;;;;4883213;29;20698;-94
2021/09/20 00:33:10;;;;;;;7.67;7.07;;;13.80;99.90;;;;;;4889104;29;21161;-95
2021/09/20 00:35:39;;;;;;;6.70;6.30;;;13.90;99.90;;;;;;4875220;29;20634;-96
2021/09/20 00:38:10;;;;;;;5.67;5.13;;;13.80;99.90;;;;;;4879401;29;20673;-96
2021/09/20 00:40:37;;;;;;;7.67;7.10;;;13.80;99.90;;;;;;4879619;29;20681;-95
2021/09/20 00:43:06;;;;;;;6.80;6.20;;;13.80;99.90;;;;;;4880469;29;20737;-95
2021/09/20 00:45:33;;;;;;;6.40;6.00;;;13.80;99.90;;;;;;4882920;29;20642;-95
2021/09/20 00:48:01;;;;;;;6.50;6.00;;;13.80;99.90;;;;;;4879437;29;20765;-95
2021/09/20 00:50:29;;;;;;;7.23;6.53;;;13.80;99.90;;;;;;4881094;29;20672;-95
2021/09/20 00:53:00;;;;;;;6.83;6.37;;;13.80;99.90;;;;;;4880365;29;20650;-96
2021/09/20 00:55:29;;;;;;;7.30;6.60;;;13.80;99.90;;;;;;4883531;29;20740;-95
2021/09/20 00:57:57;;;;;;;6.60;6.20;;;13.80;99.90;;;;;;4881498;29;20677;-96
2021/09/20 01:00:26;;;;;;;6.70;6.30;;;13.80;99.90;;;;;;4882295;29;20638;-96
2021/09/20 01:02:53;;;;;;;6.50;5.83;;;13.80;99.90;;;;;;4882709;29;20626;-95
2021/09/20 01:05:23;;;;;;;5.70;5.30;;;13.80;99.90;;;;;;4886410;29;20643;-95
2021/09/20 01:07:50;;;;;;;5.63;5.23;;;13.70;99.90;;;;;;4888465;29;20657;-95
2021/09/20 01:23:20;;;;;;;5.63;5.23;;;13.80;99.90;;;;;;4808994;29;20622;-96
2021/09/20 01:25:50;;;;;;;5.80;5.40;;;13.90;99.90;;;;;;4766412;30;20667;-96
2021/09/20 01:28:18;;;;;;;5.83;5.33;;;13.80;99.90;;;;;;4794427;29;20640;-95
2021/09/20 01:30:45;;;;;;;6.43;5.97;;;13.80;99.90;;;;;;4856203;29;20658;-95
2021/09/20 01:33:14;;;;;;;6.40;5.90;;;13.90;99.90;;;;;;4864587;29;20645;-96
2021/09/20 01:35:42;;;;;;;6.40;6.00;;;13.90;99.90;;;;;;4868068;29;21111;-96
2021/09/20 01:38:09;;;;;;;7.43;6.60;;;13.80;99.90;;;;;;4862794;29;20673;-96
2021/09/20 01:40:36;;;;;;;7.40;6.90;;;13.80;99.90;;;;;;4864391;29;20634;-96
2021/09/20 01:43:06;;;;;;;7.60;7.00;;;13.80;99.90;;;;;;4863430;29;20682;-96
2021/09/20 01:45:33;;;;;;;6.40;5.90;;;13.70;99.90;;;;;;4872731;29;20646;-95
2021/09/20 01:48:01;;;;;;;5.87;5.47;;;13.70;99.90;;;;;;4863054;29;20741;-96
2021/09/20 01:50:28;;;;;;;6.30;5.90;;;13.70;99.90;;;;;;4864493;29;20729;-96
2021/09/20 01:52:55;;;;;;;7.57;6.53;;;13.60;99.90;;;;;;4869346;29;20740;-95
2021/09/20 01:58:08;;;;;;;6.83;6.30;;;13.70;99.90;;;;;;4885405;29;20633;-96
2021/09/20 02:00:36;;;;;;;7.43;6.77;;;13.70;99.90;;;;;;4882428;29;20645;-96
2021/09/20 02:03:03;;;;;;;7.53;6.93;;;13.60;99.90;;;;;;4867065;29;20650;-96
2021/09/20 02:05:31;;;;;;;6.97;6.47;;;13.50;99.90;;;;;;4869923;29;21182;-96
2021/09/20 02:08:08;;;;;;;6.43;6.03;;;13.50;99.90;;;;;;4885058;29;20627;-96
2021/09/20 02:10:36;;;;;;;6.67;6.17;;;13.50;99.90;;;;;;4888187;29;20661;-96
2021/09/20 02:13:05;;;;;;;7.37;6.87;;;13.60;99.90;;;;;;4870437;29;20726;-95
2021/09/20 02:15:34;;;;;;;8.17;7.57;;;13.70;99.90;;;;;;4863529;29;20687;-96
2021/09/20 02:18:02;;;;;;;7.30;6.80;;;13.60;99.90;;;;;;4863996;29;20639;-96
2021/09/20 02:20:37;;;;;;;6.80;6.37;;;13.60;99.90;;;;;;4863915;29;20662;-96
2021/09/20 02:23:05;;;;;;;7.93;7.37;;;13.70;99.90;;;;;;4862555;29;20678;-95
2021/09/20 02:25:32;;;;;;;7.47;6.97;;;13.70;99.90;;;;;;4870735;29;20649;-96
2021/09/20 02:28:01;;;;;;;8.77;7.97;;;13.60;99.90;;;;;;4865384;29;20669;-96
2021/09/20 02:31:00;;;;;;;7.17;6.63;;;13.70;99.90;;;;;;4864809;29;20749;-95
2021/09/20 02:33:29;;;;;;;8.60;7.80;;;13.70;99.90;;;;;;4864283;29;20672;-95
2021/09/20 02:35:56;;;;;;;9.17;8.47;;;13.60;99.90;;;;;;4878235;29;20749;-95
2021/09/20 02:38:23;;;;;;;7.30;6.80;;;13.60;99.90;;;;;;4888317;29;20646;-96
2021/09/20 02:40:50;;;;;;;7.40;6.80;;;13.60;99.90;;;;;;4889443;29;20646;-96
2021/09/20 02:43:24;;;;;;;7.90;7.40;;;13.40;99.90;;;;;;4873639;29;20662;-95
2021/09/20 02:45:51;;;;;;;7.20;6.70;;;13.40;99.90;;;;;;4866087;29;20742;-96
2021/09/20 02:48:19;;;;;;;8.03;7.23;;;13.50;99.90;;;;;;4865685;29;20643;-96
2021/09/20 02:50:48;;;;;;;7.37;6.80;;;13.50;99.90;;;;;;4865311;29;20670;-96
2021/09/20 02:53:15;;;;;;;8.17;7.50;;;13.50;99.90;;;;;;4869177;29;20661;-95
2021/09/20 02:55:43;;;;;;;8.27;7.27;;;13.50;99.90;;;;;;4863936;29;20729;-95
2021/09/20 02:58:11;;;;;;;8.60;7.93;;;13.40;99.90;;;;;;4864461;29;20698;-95
2021/09/20 03:00:39;;;;;;;7.70;7.10;;;13.50;99.90;;;;;;4864438;29;20691;-96
2021/09/20 03:03:07;;;;;;;9.20;8.50;;;13.50;99.90;;;;;;4865354;29;20645;-95
2021/09/20 03:05:35;;;;;;;6.60;6.10;;;13.50;99.90;;;;;;4863827;29;20647;-96
2021/09/20 03:08:06;;;;;;;7.40;6.90;;;13.60;99.90;;;;;;4864295;29;20634;-95
2021/09/20 03:10:34;;;;;;;7.27;6.77;;;13.50;99.90;;;;;;4864729;29;20669;-95
2021/09/20 03:13:02;;;;;;;6.80;6.30;;;13.50;99.90;;;;;;4866001;29;20635;-95
2021/09/20 03:15:29;;;;;;;7.30;6.77;;;13.40;99.90;;;;;;4863584;29;20732;-96
2021/09/20 03:17:59;;;;;;;6.70;6.13;;;13.30;99.90;;;;;;4864844;29;20638;-94
2021/09/20 03:20:27;;;;;;;6.80;6.30;;;13.30;99.90;;;;;;4864756;29;20661;-94
2021/09/20 03:22:54;;;;;;;7.57;7.07;;;13.30;99.90;;;;;;4864579;29;20726;-95
2021/09/20 03:25:24;;;;;;;7.20;6.60;;;13.20;99.90;;;;;;4871052;29;20662;-96
2021/09/20 03:27:51;;;;;;;6.50;6.00;;;13.20;99.90;;;;;;4868944;29;20659;-96
2021/09/20 03:30:19;;;;;;;7.40;6.90;;;13.20;99.90;;;;;;4856741;29;20630;-96
2021/09/20 03:32:48;;;;;;;6.40;6.00;;;13.20;99.90;;;;;;4845789;29;20635;-96
2021/09/20 03:35:22;;;;;;;6.17;5.60;;;13.20;99.90;;;;;;4855456;29;20662;-95
2021/09/20 03:37:49;;;;;;;6.80;6.10;;;13.20;99.90;;;;;;4863767;29;20643;-95
2021/09/20 03:40:19;;;;;;;6.97;6.43;;;13.20;99.90;;;;;;4863760;29;20654;-94
2021/09/20 03:42:48;;;;;;;6.33;5.93;;;13.20;99.90;;;;;;4864150;29;20634;-94
2021/09/20 03:45:15;;;;;;;6.10;5.70;;;13.20;99.90;;;;;;4863328;29;20662;-94
2021/09/20 03:47:54;;;;;;;6.70;6.30;;;13.10;99.90;;;;;;4862778;29;20746;-93
2021/09/20 03:50:21;;;;;;;6.30;5.70;;;13.10;99.90;;;;;;4865453;29;20639;-94
2021/09/20 03:52:48;;;;;;;7.30;6.70;;;13.10;99.90;;;;;;4869472;29;20647;-94
2021/09/20 03:55:42;;;;;;;7.10;6.47;;;13.10;99.90;;;;;;4879814;29;20650;-94
2021/09/20 03:58:11;;;;;;;7.17;6.67;;;13.10;99.90;;;;;;4874538;29;20698;-93
2021/09/20 04:00:45;;;;;;;8.13;6.10;;;13.10;99.90;;;;;;4883775;29;20666;-93
2021/09/20 04:03:11;;;;;;;6.57;6.17;;;13.10;99.90;;;;;;4879717;29;20656;-93
2021/09/20 04:05:38;;;;;;;6.97;6.47;;;13.10;99.90;;;;;;4882759;29;20707;-93
2021/09/20 04:08:06;;;;;;;7.27;6.77;;;13.10;99.90;;;;;;4882219;29;20642;-94
2021/09/20 04:10:33;;;;;;;7.90;7.30;;;13.10;99.90;;;;;;4884400;29;20623;-94
2021/09/20 04:13:02;;;;;;;7.70;7.20;;;13.00;99.90;;;;;;4884343;29;20658;-94
2021/09/20 04:15:30;;;;;;;8.60;7.70;;;13.00;99.90;;;;;;4886344;29;20734;-94
2021/09/20 04:17:57;;;;;;;8.00;7.40;;;13.00;99.90;;;;;;4881610;29;20631;-94
2021/09/20 04:20:32;;;;;;;7.93;7.23;;;13.00;99.90;;;;;;4882630;29;20758;-94
2021/09/20 04:23:14;;;;;;;8.23;7.53;;;13.10;99.90;;;;;;4880084;29;20646;-95
2021/09/20 04:25:51;;;;;;;8.50;7.77;;;13.20;99.90;;;;;;4881042;29;20649;-94
2021/09/20 04:28:30;;;;;;;8.90;8.00;;;13.20;99.90;;;;;;4883649;29;20698;-94
2021/09/20 04:31:31;;;;;;;8.00;7.37;;;13.20;99.90;;;;;;4883681;29;20642;-96
2021/09/20 04:37:01;;;;;;;7.83;7.23;;;13.20;99.90;;;;;;4881401;29;20636;-95
2021/09/20 04:42:32;;;;;;;8.33;7.53;;;13.20;99.90;;;;;;4890957;29;20616;-94
2021/09/20 04:45:03;;;;;;;8.00;7.30;;;13.40;99.90;;;;;;4883172;29;20671;-94
2021/09/20 04:47:37;;;;;;;8.40;7.70;;;13.30;99.90;;;;;;4880619;29;20607;-95
2021/09/20 04:50:07;;;;;;;8.47;7.80;;;13.30;99.90;;;;;;4882791;29;20643;-95
2021/09/20 04:52:34;;;;;;;8.93;8.23;;;13.30;99.90;;;;;;4890030;29;20713;-95
2021/09/20 04:55:04;;;;;;;6.43;5.93;;;13.30;99.90;;;;;;4879346;29;20671;-94
2021/09/20 04:57:31;;;;;;;6.90;5.80;;;13.40;99.90;;;;;;4878550;29;20703;-93
2021/09/20 05:00:01;;;;;;;7.50;6.90;;;13.40;99.90;;;;;;4874993;29;20675;-91
2021/09/20 05:02:28;;;;;;;6.80;6.30;;;13.30;99.90;;;;;;4883574;29;20631;-94
2021/09/20 05:05:09;;;;;;;7.10;6.60;;;13.30;99.90;;;;;;4882521;29;20667;-92
2021/09/20 05:07:36;;;;;;;7.03;6.47;;;13.30;99.90;;;;;;4877417;29;20668;-94
2021/09/20 05:10:04;;;;;;;7.10;6.70;;;13.30;99.90;;;;;;4880046;29;20647;-92
2021/09/20 05:12:30;;;;;;;7.13;6.53;;;13.30;99.90;;;;;;4884380;29;20623;-92
2021/09/20 05:14:57;;;;;;;6.97;6.40;;;13.30;99.90;;;;;;4880002;29;20654;-93
2021/09/20 05:17:24;;;;;;;7.17;6.57;;;13.20;99.90;;;;;;4884486;29;20663;-93
2021/09/20 05:19:52;;;;;;;7.80;7.20;;;13.30;99.90;;;;;;4880275;29;20758;-94
2021/09/20 05:22:21;;;;;;;6.90;6.30;;;13.30;99.90;;;;;;4883639;29;20615;-93
2021/09/20 05:24:48;;;;;;;8.30;7.70;;;13.30;99.90;;;;;;4882405;29;20685;-94
2021/09/20 05:27:15;;;;;;;7.23;6.73;;;13.30;99.90;;;;;;4882986;29;20627;-94
2021/09/20 05:29:44;;;;;;;7.40;6.83;;;13.40;99.90;;;;;;4988318;23;20758;-95
2021/09/20 05:32:11;;;;;;;8.50;7.80;;;13.40;99.90;;;;;;4902675;29;20632;-95
2021/09/20 05:34:39;;;;;;;8.80;8.10;;;13.30;99.90;;;;;;4907202;29;20737;-95
2021/09/20 05:37:06;;;;;;;8.00;7.40;;;13.40;99.90;;;;;;4905577;29;20632;-95
2021/09/20 05:39:35;;;;;;;8.47;7.83;;;13.50;99.90;;;;;;4900977;29;20689;-95
2021/09/20 05:42:02;;;;;;;9.20;8.50;;;13.50;99.90;;;;;;4901559;29;20648;-96
2021/09/20 05:44:29;;;;;;;9.03;8.17;;;13.50;99.90;;;;;;4902787;29;20740;-95
2021/09/20 05:47:00;;;;;;;8.77;8.07;;;13.60;99.90;;;;;;4903007;29;20622;-96
2021/09/20 05:49:27;;;;;;;8.60;7.70;;;13.60;99.90;;;;;;4904214;29;20657;-95
2021/09/20 05:51:54;;;;;;;8.17;7.47;;;13.60;99.90;;;;;;4902025;29;20849;-95
2021/09/20 05:54:22;;;;;;;9.20;8.40;;;13.60;99.90;;;;;;4905111;29;20641;-95
2021/09/20 05:56:51;;;;;;;8.13;7.50;;;13.70;99.90;;;;;;4894714;29;20718;-95
2021/09/20 05:59:19;;;;;;;8.93;8.23;;;13.70;99.90;;;;;;4901308;29;20626;-94
2021/09/20 06:01:46;;;;;;;9.40;8.60;;;13.70;99.90;;;;;;4905082;29;20701;-94
2021/09/20 06:04:14;;;;;;;8.77;8.07;;;13.70;99.90;;;;;;4903338;29;20776;-94
2021/09/20 06:06:41;;;;;;;8.97;8.27;;;13.70;99.90;;;;;;4901909;29;20629;-94
2021/09/20 06:09:08;;;;;;;9.70;8.97;;;13.70;99.90;;;;;;4894061;29;20630;-94
2021/09/20 06:11:37;;;;;;;7.93;7.30;;;13.70;99.90;;;;;;4899333;29;20669;-95
2021/09/20 06:14:09;;;;;;;9.07;8.37;;;13.80;99.90;;;;;;4887036;29;20634;-94
2021/09/20 06:16:37;;;;;;;9.70;9.00;;;13.90;99.90;;;;;;4884788;29;21038;-95
2021/09/20 06:19:04;;;;;;;10.43;9.40;;;13.90;99.90;;;;;;4889685;29;20709;-94
2021/09/20 06:21:45;;;;;;;10.07;9.27;;;14.00;99.90;;;;;;4888861;29;20713;-96
2021/09/20 06:24:13;;;;;;;8.90;8.10;;;14.00;99.90;;;;;;4885515;29;20653;-95
2021/09/20 06:26:47;;;;;;;10.57;9.37;;;14.10;99.90;;;;;;4884302;29;20638;-95
2021/09/20 06:29:15;;;;;;;9.13;8.43;;;14.10;99.90;;;;;;4874826;29;20641;-95
2021/09/20 06:31:42;;;;;;;9.63;8.47;;;14.10;99.90;;;;;;4883307;29;20760;-92
2021/09/20 06:34:09;;;;;;;9.87;8.97;;;14.10;99.90;;;;;;4880182;29;21193;-94
2021/09/20 06:36:45;;;;;;;9.97;9.07;;;14.10;99.90;;;;;;4884672;29;20671;-95
2021/09/20 06:39:12;;;;;;;11.03;9.90;;;14.10;99.90;;;;;;4882939;29;20641;-95
2021/09/20 06:41:39;;;;;;;10.43;9.53;;;14.20;99.90;;;;;;4883955;29;20697;-95
2021/09/20 06:44:06;;;;;;;10.63;9.60;;;14.30;99.90;;;;;;4882965;29;20648;-94
2021/09/20 06:46:45;;;;;;;9.10;8.30;;;14.40;99.90;;;;;;4882783;29;20644;-95
2021/09/20 06:49:15;;;;;;;8.97;8.27;;;14.40;99.90;;;;;;4881252;29;20642;-95
2021/09/20 06:51:43;;;;;;;9.90;9.10;;;14.50;99.90;;;;;;4884611;29;20658;-94
2021/09/20 06:54:10;;;;;;;10.70;9.80;;;14.50;99.90;;;;;;4886453;29;20642;-95
2021/09/20 06:56:39;;;;;;;9.60;8.80;;;14.60;99.90;;;;;;4883262;29;20638;-94
2021/09/20 06:59:06;;;;;;;10.17;9.27;;;14.60;99.90;;;;;;4884654;29;20638;-95
2021/09/20 07:01:33;;;;;;;9.70;8.63;;;14.70;99.90;;;;;;4888039;29;20700;-94
2021/09/20 07:04:02;;;;;;;10.20;9.40;;;14.60;99.90;;;;;;4882309;29;20688;-95
2021/09/20 07:06:32;;;;;;;9.20;8.50;;;14.50;99.90;;;;;;4874002;29;20730;-95
2021/09/20 07:08:59;;;;;;;10.60;9.23;;;14.50;99.90;;;;;;4884309;29;20637;-95
2021/09/20 07:11:27;;;;;;;9.60;8.70;;;14.60;99.90;;;;;;4886443;29;20740;-95
2021/09/20 07:13:54;;;;;;;8.93;7.77;;;14.80;99.90;;;;;;4883882;29;20655;-94
2021/09/20 07:16:21;;;;;;;9.87;8.97;;;14.80;99.90;;;;;;4885670;29;20729;-94
2021/09/20 07:18:55;;;;;;;10.03;9.23;;;14.80;99.90;;;;;;4880273;29;20698;-95
2021/09/20 07:21:25;;;;;;;9.10;8.10;;;15.00;99.90;;;;;;4886092;29;20739;-96
2021/09/20 07:23:54;;;;;;;9.20;8.40;;;15.00;99.90;;;;;;4895388;29;20729;-94
2021/09/20 07:26:22;;;;;;;9.40;8.40;;;15.10;99.90;;;;;;4880349;29;20652;-95
2021/09/20 07:28:49;;;;;;;10.30;9.10;;;15.20;99.90;;;;;;4882964;29;20669;-94
2021/09/20 07:31:21;;;;;;;9.43;8.63;;;15.10;99.90;;;;;;4890347;29;20775;-94
2021/09/20 07:33:51;;;;;;;9.50;8.70;;;15.10;99.90;;;;;;4884164;29;20629;-93
2021/09/20 07:36:19;;;;;;;10.80;9.90;;;15.20;99.90;;;;;;4888807;29;20634;-95
2021/09/20 07:38:49;;;;;;;10.50;9.50;;;15.10;99.90;;;;;;4887094;29;20762;-94
2021/09/20 07:41:18;;;;;;;13.97;9.73;;;15.30;99.90;;;;;;4888688;29;20673;-94
2021/09/20 07:43:46;;;;;;;11.33;9.90;;;15.30;99.90;;;;;;4878817;29;20642;-94
2021/09/20 07:46:14;;;;;;;11.60;10.50;;;15.30;99.90;;;;;;4892597;29;20645;-94
2021/09/20 07:48:43;;;;;;;12.70;9.70;;;15.20;99.90;;;;;;4887065;29;20641;-94
2021/09/20 07:51:13;;;;;;;13.37;11.10;;;15.40;99.90;;;;;;4880362;29;20701;-93
2021/09/20 07:53:40;;;;;;;12.30;11.27;;;15.50;99.90;;;;;;4876782;29;20658;-92
2021/09/20 07:56:08;;;;;;;12.43;11.27;;;15.50;99.90;;;;;;4879901;29;20649;-92
2021/09/20 07:58:38;;;;;;;12.80;11.70;;;15.70;99.90;;;;;;4879458;29;20634;-92
2021/09/20 08:01:05;;;;;;;14.10;11.33;;;15.70;99.90;;;;;;4882937;29;20689;-92
2021/09/20 08:03:32;;;;;;;11.60;10.60;;;15.50;99.90;;;;;;4886732;29;20641;-93
2021/09/20 08:06:02;;;;;;;11.27;10.20;;;15.50;99.90;;;;;;4882236;29;21097;-94
2021/09/20 08:08:35;;;;;;;10.33;9.53;;;15.60;99.90;;;;;;4881090;29;20733;-92
2021/09/20 08:11:04;;;;;;;11.60;10.60;;;15.70;99.90;;;;;;4888813;29;20701;-93
2021/09/20 08:13:33;;;;;;;11.60;10.50;;;15.90;99.90;;;;;;4900492;29;20632;-94
2021/09/20 08:16:00;;;;;;;10.80;9.80;;;16.00;99.90;;;;;;4892087;29;20618;-92
2021/09/20 08:18:27;;;;;;;9.83;8.70;;;16.10;99.90;;;;;;4897499;29;20629;-93
2021/09/20 08:20:55;;;;;;;10.50;9.50;;;16.10;99.90;;;;;;4898332;29;20688;-93
2021/09/20 08:23:22;;;;;;;10.00;9.20;;;16.20;99.90;;;;;;4891179;29;20646;-92
2021/09/20 08:25:50;;;;;;;10.27;9.37;;;16.10;99.90;;;;;;4879676;29;20721;-92
2021/09/20 08:28:20;;;;;;;11.63;10.50;;;15.80;99.90;;;;;;4884181;29;21279;-92
2021/09/20 08:30:50;;;;;;;11.13;10.00;;;16.00;99.90;;;;;;4883151;29;20673;-92
2021/09/20 08:33:17;;;;;;;9.90;9.00;;;16.00;99.90;;;;;;4879458;29;20656;-93
2021/09/20 08:35:44;;;;;;;12.13;10.87;;;16.10;99.90;;;;;;4884791;29;20635;-92
2021/09/20 08:38:13;;;;;;;10.90;10.00;;;16.10;99.90;;;;;;4893108;29;20629;-91
2021/09/20 08:40:39;;;;;;;11.93;11.03;;;16.10;99.90;;;;;;4887681;29;20677;-93
2021/09/20 08:43:07;;;;;;;10.83;9.90;;;16.30;99.90;;;;;;4880652;29;20646;-92
2021/09/20 08:45:34;;;;;;;11.63;10.57;;;16.30;99.90;;;;;;4882272;29;20599;-93
2021/09/20 08:48:04;;;;;;;10.90;10.00;;;16.40;99.90;;;;;;4881086;29;20741;-92
2021/09/20 08:50:34;;;;;;;11.27;10.30;;;16.30;99.90;;;;;;4878995;29;20658;-93
2021/09/20 08:53:01;;;;;;;9.53;8.80;;;16.30;99.90;;;;;;4884709;29;20641;-92
2021/09/20 08:55:32;;;;;;;11.40;10.40;;;16.60;99.90;;;;;;4886054;29;20644;-92
2021/09/20 08:58:00;;;;;;;12.20;11.10;;;16.70;99.90;;;;;;4877343;29;20645;-92
2021/09/20 09:00:28;;;;;;;11.27;10.37;;;16.90;99.90;;;;;;4882851;29;20649;-92
2021/09/20 09:03:00;;;;;;;10.40;9.60;;;17.00;99.90;;;;;;4882726;29;20733;-92
2021/09/20 09:05:31;;;;;;;11.13;9.50;;;17.10;99.90;;;;;;4882577;29;20973;-93
2021/09/20 09:07:59;;;;;;;10.13;9.23;;;17.00;99.90;;;;;;4875757;29;20637;-91
2021/09/20 09:10:31;;;;;;;8.47;7.73;;;16.70;99.90;;;;;;4885286;29;21263;-92
2021/09/20 09:12:59;;;;;;;10.57;9.73;;;16.70;99.90;;;;;;4884164;29;20637;-92
2021/09/20 09:15:32;;;;;;;9.00;7.90;;;16.50;99.90;;;;;;4881714;29;20646;-91
2021/09/20 09:18:01;;;;;;;9.27;8.37;;;16.40;99.90;;;;;;4887778;29;20596;-94
2021/09/20 09:20:32;;;;;;;12.60;9.83;;;16.40;99.90;;;;;;4892052;29;20650;-92
2021/09/20 09:23:04;;;;;;;10.63;9.60;;;16.40;99.90;;;;;;4889581;29;20647;-91
2021/09/20 09:25:37;;;;;;;13.43;12.00;;;16.50;99.90;;;;;;4899710;29;20668;-91
2021/09/20 09:28:14;;;;;;;13.27;11.30;;;16.50;99.90;;;;;;4888680;29;20646;-93
2021/09/20 09:30:44;;;;;;;11.10;10.10;;;16.50;99.90;;;;;;4882550;29;20683;-92
2021/09/20 09:33:20;;;;;;;10.00;9.10;;;16.50;99.90;;;;;;4886482;29;20679;-91
2021/09/20 09:35:50;;;;;;;9.90;9.00;;;16.50;99.90;;;;;;4879429;29;20648;-92
2021/09/20 09:38:19;;;;;;;11.90;10.70;;;16.50;99.90;;;;;;4881263;29;20700;-91
2021/09/20 09:40:49;;;;;;;11.30;10.30;;;16.60;99.90;;;;;;4880061;29;21632;-93
2021/09/20 09:43:24;;;;;;;11.03;10.17;;;16.80;99.90;;;;;;4879431;29;21306;-92
2021/09/20 09:45:54;;;;;;;11.73;10.77;;;17.00;99.90;;;;;;4876186;29;20649;-92
2021/09/20 09:48:24;;;;;;;10.73;9.73;;;17.00;99.90;;;;;;4875599;29;20983;-92
2021/09/20 09:50:54;;;;;;;11.63;10.63;;;17.00;99.90;;;;;;4885714;29;20679;-92
2021/09/20 09:53:31;;;;;;;12.43;11.47;;;17.10;99.90;;;;;;4884574;29;20641;-93
2021/09/20 09:56:02;;;;;;;12.70;11.60;;;17.30;99.90;;;;;;4886886;29;20665;-92
2021/09/20 09:58:31;;;;;;;12.47;11.47;;;17.20;99.90;;;;;;4884856;29;20587;-95
2021/09/20 10:01:15;;;;;;;12.50;11.50;;;17.20;99.90;;;;;;4879845;29;20680;-94
2021/09/20 10:04:04;;;;;;;11.70;10.50;;;17.20;99.90;;;;;;4886091;29;20629;-93
2021/09/20 10:06:50;;;;;;;13.40;12.10;;;17.30;99.90;;;;;;4881221;29;20634;-93
2021/09/20 10:09:19;;;;;;;12.20;11.20;;;17.10;99.90;;;;;;4881065;29;21187;-93
2021/09/20 10:11:48;;;;;;;10.77;9.87;;;17.20;99.90;;;;;;4890098;29;20642;-93
2021/09/20 10:14:23;;;;;;;9.67;8.73;;;17.10;99.90;;;;;;4881019;29;20650;-94
2021/09/20 10:16:54;;;;;;;13.10;11.90;;;17.00;99.90;;;;;;4880445;29;20643;-92
2021/09/20 10:19:21;;;;;;;12.73;11.73;;;16.90;99.90;;;;;;4880196;29;20618;-93
2021/09/20 10:21:54;;;;;;;10.53;9.53;;;16.80;99.90;;;;;;4882856;29;21216;-93
2021/09/20 10:24:22;;;;;;;11.47;10.17;;;16.60;99.90;;;;;;4879043;29;20741;-93
2021/09/20 10:26:49;;;;;;;12.97;11.97;;;16.70;99.90;;;;;;4879018;29;20624;-92
2021/09/20 10:29:18;;;;;;;12.90;11.73;;;16.70;99.90;;;;;;4880963;29;20749;-93
2021/09/20 10:31:49;;;;;;;12.00;11.00;;;16.60;99.90;;;;;;4879962;29;20658;-94
2021/09/20 10:34:30;;;;;;;12.50;11.20;;;16.60;99.90;;;;;;4876396;29;20676;-94
2021/09/20 10:37:17;;;;;;;12.70;11.70;;;16.70;99.90;;;;;;4874933;29;20737;-93
2021/09/20 10:40:04;;;;;;;12.73;11.73;;;16.90;99.90;;;;;;4877491;29;20667;-94
2021/09/20 10:42:52;;;;;;;13.53;12.43;;;16.80;99.90;;;;;;4878742;29;20673;-94
2021/09/20 10:45:53;;;;;;;13.90;12.70;;;16.80;99.90;;;;;;4876355;29;20676;-94
2021/09/20 10:48:51;;;;;;;11.70;10.70;;;16.90;99.90;;;;;;4802448;29;20744;-93
2021/09/20 10:51:26;;;;;;;12.03;11.10;;;17.00;99.90;;;;;;4887291;29;20735;-94
2021/09/20 10:54:14;;;;;;;11.93;11.03;;;17.10;99.90;;;;;;4882656;29;20772;-93
2021/09/20 10:56:43;;;;;;;11.77;10.93;;;17.20;99.90;;;;;;4879781;29;20662;-94
2021/09/20 10:59:23;;;;;;;11.43;10.53;;;17.20;99.90;;;;;;4884450;29;20718;-94
2021/09/20 11:02:11;;;;;;;9.67;8.47;;;17.20;99.90;;;;;;4877536;29;20665;-93
2021/09/20 11:04:40;;;;;;;10.40;9.03;;;17.30;99.90;;;;;;4880962;29;20648;-93
2021/09/20 11:07:16;;;;;;;9.47;8.60;;;17.20;99.90;;;;;;4884331;29;20646;-94
2021/09/20 11:09:51;;;;;;;9.50;8.60;;;17.30;99.90;;;;;;4880538;29;20677;-93
2021/09/20 11:12:20;;;;;;;11.27;10.27;;;17.30;99.90;;;;;;4880492;29;20629;-93
2021/09/20 11:14:50;;;;;;;9.63;8.80;;;17.30;99.90;;;;;;4879849;29;20634;-94
2021/09/20 11:17:27;;;;;;;9.03;8.23;;;17.30;99.90;;;;;;4879651;29;20725;-94
2021/09/20 11:19:59;;;;;;;11.47;10.50;;;17.50;99.90;;;;;;4882506;29;20658;-93
2021/09/20 11:22:30;;;;;;;10.90;10.00;;;17.50;99.90;;;;;;4883307;29;20677;-93
2021/09/20 11:25:04;;;;;;;11.70;10.80;;;17.40;99.90;;;;;;4882892;29;20641;-93
2021/09/20 11:27:34;;;;;;;10.40;9.33;;;17.40;99.90;;;;;;4877210;29;21219;-94
2021/09/20 11:30:03;;;;;;;9.97;7.93;;;17.60;99.90;;;;;;4881678;29;20685;-92
2021/09/20 11:32:32;;;;;;;10.37;9.47;;;17.70;99.90;;;;;;4881725;29;20673;-93
2021/09/20 11:35:06;;;;;;;10.10;9.20;;;17.70;99.90;;;;;;4886984;29;20677;-94
2021/09/20 11:37:33;;;;;;;8.33;7.63;;;17.80;99.90;;;;;;4878176;29;20749;-93
2021/09/20 11:40:06;;;;;;;10.80;9.80;;;17.90;99.90;;;;;;4875008;29;20688;-94
2021/09/20 11:42:43;;;;;;;10.40;9.60;;;17.90;99.90;;;;;;4873857;29;20673;-93
2021/09/20 11:45:14;;;;;;;10.50;9.60;;;18.00;99.90;;;;;;4877680;29;20629;-93
2021/09/20 11:47:44;;;;;;;8.80;8.00;;;18.10;99.90;;;;;;4877031;29;20722;-93
2021/09/20 11:50:21;;;;;;;8.10;7.40;;;18.30;99.90;;;;;;4880754;29;20700;-93
2021/09/20 11:52:50;;;;;;;8.47;7.67;;;18.50;99.90;;;;;;4882321;29;20709;-93
2021/09/20 11:55:31;;;;;;;8.17;7.47;;;18.70;99.90;;;;;;4879216;29;20644;-93
2021/09/20 11:58:05;;;;;;;10.33;8.40;;;18.80;99.90;;;;;;4878584;29;20626;-93
2021/09/20 12:00:36;;;;;;;8.90;8.10;;;18.90;99.90;;;;;;4880938;29;20761;-93
2021/09/20 12:03:08;;;;;;;7.63;6.93;;;18.80;99.90;;;;;;4870120;29;21601;-92
2021/09/20 12:05:47;;;;;;;8.80;8.00;;;19.10;99.90;;;;;;4873670;29;20660;-93
2021/09/20 12:08:18;;;;;;;8.37;7.67;;;18.90;99.90;;;;;;4878963;29;20718;-94
2021/09/20 12:10:48;;;;;;;9.13;8.50;;;19.20;99.90;;;;;;4877077;29;20670;-94
2021/09/20 12:13:23;;;;;;;9.53;8.73;;;19.20;99.90;;;;;;4881420;29;20697;-94
2021/09/20 12:16:02;;;;;;;8.90;8.00;;;19.30;99.90;;;;;;4876771;29;20645;-93
2021/09/20 12:18:30;;;;;;;8.50;7.80;;;19.10;99.90;;;;;;4875655;29;20645;-93
2021/09/20 12:20:59;;;;;;;7.80;7.10;;;19.30;99.90;;;;;;4874609;29;21107;-93
2021/09/20 12:23:31;;;;;;;7.97;7.27;;;19.30;99.90;;;;;;4880177;29;20677;-93
2021/09/20 12:26:01;;;;;;;9.80;8.90;;;19.70;99.90;;;;;;4880076;29;20645;-95
2021/09/20 12:28:31;;;;;;;10.07;9.10;;;19.80;99.90;;;;;;4874488;29;20654;-93
2021/09/20 12:31:03;;;;;;;8.97;8.20;;;19.90;99.90;;;;;;4874428;29;21268;-94
2021/09/20 12:33:31;;;;;;;8.70;7.90;;;19.90;99.90;;;;;;4881777;29;21186;-95
2021/09/20 12:35:58;;;;;;;9.27;8.20;;;19.80;99.90;;;;;;4877429;29;20673;-94
2021/09/20 12:38:32;;;;;;;8.70;7.90;;;19.90;99.90;;;;;;4879079;29;20706;-94
2021/09/20 12:41:12;;;;;;;8.20;7.60;;;19.80;99.90;;;;;;4875509;29;20768;-94
2021/09/20 12:43:39;;;;;;;8.53;7.53;;;19.70;99.90;;;;;;4874945;29;20662;-92
2021/09/20 12:46:19;;;;;;;9.30;8.50;;;20.00;99.90;;;;;;4876178;29;21787;-92
2021/09/20 12:48:48;;;;;;;8.70;8.03;;;20.40;99.90;;;;;;4874523;29;20646;-92
2021/09/20 12:51:17;;;;;;;8.87;8.17;;;20.80;99.90;;;;;;4880056;29;21455;-92
2021/09/20 12:53:48;;;;;;;8.97;8.17;;;20.90;99.90;;;;;;4879376;29;21254;-94
2021/09/20 12:56:18;;;;;;;8.90;8.20;;;21.40;99.90;;;;;;4885602;29;20641;-94
2021/09/20 12:58:49;;;;;;;8.07;7.37;;;21.40;99.90;;;;;;4885197;29;21250;-93
2021/09/20 13:01:24;;;;;;;10.10;9.20;;;21.40;99.90;;;;;;4879703;29;20662;-93
2021/09/20 13:03:58;;;;;;;7.43;6.90;;;20.70;99.90;;;;;;4873345;29;20646;-94
2021/09/20 13:06:26;;;;;;;7.40;6.90;;;20.70;99.90;;;;;;4871067;29;21063;-93
2021/09/20 13:09:01;;;;;;;11.03;9.97;;;20.40;99.90;;;;;;4876283;29;20622;-93
2021/09/20 13:11:41;;;;;;;8.30;7.60;;;20.50;99.90;;;;;;4880669;29;21310;-94
2021/09/20 13:14:19;;;;;;;8.10;7.50;;;20.60;99.90;;;;;;4881549;29;20705;-93
2021/09/20 13:16:46;;;;;;;8.43;7.63;;;20.60;99.90;;;;;;4884855;29;20741;-93
2021/09/20 13:19:13;;;;;;;8.53;7.73;;;20.60;99.90;;;;;;4898169;29;20611;-93
2021/09/20 13:22:05;;;;;;;9.40;8.10;;;20.40;99.90;;;;;;4900522;29;20645;-96
2021/09/20 13:24:36;;;;;;;8.53;7.83;;;20.40;99.90;;;;;;4909690;29;20630;-93
2021/09/20 13:27:16;;;;;;;6.73;6.20;;;20.80;99.90;;;;;;4898731;29;20642;-93
2021/09/20 13:29:44;;;;;;;8.93;8.13;;;21.30;99.90;;;;;;4886808;29;20678;-94
2021/09/20 13:32:12;;;;;;;8.23;7.50;;;21.40;99.90;;;;;;4885699;29;20657;-93
2021/09/20 13:34:39;;;;;;;6.70;6.20;;;21.60;99.90;;;;;;4881854;29;20665;-95